Time;durP1;ratioP1;P1;durP2;ratioP2;P2;SDS_P1;SDS_P2;PMS_P1;PMS_P2;Temp;Humidity;BMP_temperature;BMP_pressure;BME280_temperature;BME280_humidity;BME280_pressure;Samples;Min_cycle;Max_cycle;Signal;HPM_P1;HPM_P2
2022/09/18 00:00:28;;;;;;;7.50;3.20;;;;;;;11.04;63.66;99265.15;110422;1254;21961;-78
2022/09/18 00:03:18;;;;;;;5.10;2.60;;;;;;;11.01;63.75;99262.90;110447;1254;22081;-76
2022/09/18 00:05:47;;;;;;;9.70;3.70;;;;;;;10.99;63.77;99262.98;110288;1254;23686;-76
2022/09/18 00:08:16;;;;;;;7.20;3.00;;;;;;;10.95;63.57;99258.32;110270;1256;22348;-76
2022/09/18 00:10:45;;;;;;;14.90;3.50;;;;;;;10.90;63.68;99254.98;110495;1254;21971;-77
2022/09/18 00:13:15;;;;;;;7.50;4.00;;;;;;;10.86;63.59;99254.69;110263;1254;21990;-77
2022/09/18 00:15:53;;;;;;;11.40;5.00;;;;;;;10.80;63.49;99255.16;110336;1256;21978;-78
2022/09/18 00:18:22;;;;;;;9.40;5.70;;;;;;;10.73;63.63;99252.42;110269;1254;23701;-78
2022/09/18 00:20:51;;;;;;;11.20;5.40;;;;;;;10.69;63.84;99250.93;110417;1255;21982;-78
2022/09/18 00:23:20;;;;;;;9.70;5.30;;;;;;;10.67;64.07;99252.44;110445;1253;23697;-78
2022/09/18 00:25:49;;;;;;;10.40;4.70;;;;;;;10.64;64.09;99254.33;110448;1254;24428;-76
2022/09/18 00:28:18;;;;;;;10.10;4.50;;;;;;;10.58;64.11;99249.42;110432;1256;22042;-77
2022/09/18 00:30:49;;;;;;;9.60;5.20;;;;;;;10.53;64.12;99247.25;110430;1254;21974;-77
2022/09/18 00:33:19;;;;;;;10.30;4.30;;;;;;;10.49;64.26;99250.08;110444;1256;21988;-77
2022/09/18 00:35:48;;;;;;;6.30;3.80;;;;;;;10.47;64.39;99254.39;110559;1254;22026;-76
2022/09/18 00:38:17;;;;;;;9.70;4.60;;;;;;;10.44;64.45;99254.04;110457;1255;22212;-76
2022/09/18 00:40:46;;;;;;;10.20;4.30;;;;;;;10.40;64.51;99255.45;109760;1261;23637;-75
2022/09/18 00:43:25;;;;;;;9.90;5.10;;;;;;;10.36;64.64;99258.64;108889;1268;23721;-78
2022/09/18 00:46:07;;;;;;;9.50;4.20;;;;;;;10.29;64.77;99255.49;108870;1270;21985;-77
2022/09/18 00:49:15;;;;;;;7.70;4.10;;;;;;;10.26;64.88;99256.02;108905;1267;22000;-76
2022/09/18 00:51:48;;;;;;;9.00;4.00;;;;;;;10.22;64.86;99258.86;108876;1269;22375;-77
2022/09/18 00:54:37;;;;;;;7.00;4.50;;;;;;;10.20;64.88;99256.20;109134;1267;23734;-78
2022/09/18 00:57:19;;;;;;;8.80;5.10;;;;;;;10.17;64.96;99255.44;108915;1270;21988;-76
2022/09/18 00:59:50;;;;;;;8.40;4.40;;;;;;;10.15;65.02;99254.54;109429;1261;21973;-77
2022/09/18 01:02:21;;;;;;;9.30;4.10;;;;;;;10.10;65.02;99252.87;109987;1255;22070;-78
2022/09/18 01:04:50;;;;;;;7.70;3.20;;;;;;;10.09;65.18;99252.73;110446;1254;22111;-77
2022/09/18 01:08:01;;;;;;;6.30;3.50;;;;;;;10.06;65.18;99248.92;110240;1255;21961;-77
2022/09/18 01:11:11;;;;;;;10.60;3.90;;;;;;;10.03;65.28;99248.41;109924;1260;21970;-77
2022/09/18 01:14:22;;;;;;;15.00;4.10;;;;;;;9.98;65.31;99250.39;109491;1263;22758;-76
2022/09/18 01:17:45;;;;;;;6.10;3.50;;;;;;;9.92;65.36;99250.87;109270;1265;23614;-77
2022/09/18 01:20:34;;;;;;;;;;;;;;;9.87;65.48;99243.50;108823;1273;23075;-77
2022/09/18 01:23:24;;;;;;;7.10;2.80;;;;;;;9.80;65.67;99244.38;108523;1273;22013;-76
2022/09/18 01:26:17;;;;;;;8.00;3.30;;;;;;;9.82;65.74;99247.54;108674;1273;22170;-76
2022/09/18 01:29:22;;;;;;;7.10;3.30;;;;;;;9.83;65.77;99254.80;108737;1273;21992;-76
2022/09/18 01:32:19;;;;;;;6.40;3.20;;;;;;;9.83;65.88;99259.33;108676;1273;21992;-76
2022/09/18 01:35:03;;;;;;;7.80;3.10;;;;;;;9.81;65.75;99252.67;108701;1273;22788;-76
2022/09/18 01:38:17;;;;;;;6.40;2.80;;;;;;;9.83;65.82;99255.86;108795;1273;21993;-76
2022/09/18 01:41:01;;;;;;;6.80;3.20;;;;;;;9.84;65.91;99256.69;108679;1273;22361;-76
2022/09/18 01:43:34;;;;;;;8.80;3.10;;;;;;;9.85;65.97;99258.00;108746;1273;21999;-76
2022/09/18 01:46:11;;;;;;;7.30;2.70;;;;;;;9.86;65.91;99257.65;108544;1274;21978;-75
2022/09/18 01:48:55;;;;;;;8.00;3.00;;;;;;;9.85;65.84;99253.70;108876;1267;22954;-76
2022/09/18 01:51:35;;;;;;;5.90;2.90;;;;;;;9.83;65.93;99251.71;108547;1273;23039;-76
2022/09/18 01:54:16;;;;;;;8.20;4.00;;;;;;;9.82;65.97;99253.48;108690;1273;22076;-77
2022/09/18 01:56:54;;;;;;;11.80;4.50;;;;;;;9.82;66.03;99251.21;108876;1267;23745;-76
2022/09/18 01:59:32;;;;;;;6.00;3.30;;;;;;;9.83;66.07;99250.33;108861;1270;22192;-76
2022/09/18 02:02:24;;;;;;;9.20;4.10;;;;;;;9.83;66.20;99250.30;108812;1270;22476;-76
2022/09/18 02:04:59;;;;;;;5.80;3.00;;;;;;;9.82;66.31;99246.85;108753;1270;21987;-76
2022/09/18 02:07:38;;;;;;;7.50;4.10;;;;;;;9.82;66.22;99245.33;108572;1273;21983;-76
2022/09/18 02:10:10;;;;;;;6.00;3.30;;;;;;;9.82;66.15;99244.96;109029;1267;23727;-75
2022/09/18 02:12:44;;;;;;;10.40;3.40;;;;;;;9.82;66.25;99243.90;109539;1260;21972;-76
2022/09/18 02:15:15;;;;;;;7.40;3.20;;;;;;;9.83;66.21;99245.74;109855;1260;21981;-75
2022/09/18 02:18:01;;;;;;;8.10;3.30;;;;;;;9.81;66.18;99249.16;110098;1257;21977;-76
2022/09/18 02:20:41;;;;;;;7.10;3.70;;;;;;;9.77;66.18;99250.08;110384;1254;21973;-77
2022/09/18 02:23:11;;;;;;;9.60;4.20;;;;;;;9.75;66.31;99252.63;110499;1254;23581;-76
2022/09/18 02:25:51;;;;;;;10.70;3.90;;;;;;;9.74;66.23;99247.98;110465;1254;22026;-76
2022/09/18 02:28:24;;;;;;;9.20;3.80;;;;;;;9.72;66.25;99245.48;110542;1254;21979;-76
2022/09/18 02:30:54;;;;;;;8.50;3.10;;;;;;;9.71;66.33;99243.80;110470;1254;22012;-76
2022/09/18 02:33:28;;;;;;;8.90;3.60;;;;;;;9.69;66.44;99242.86;110293;1254;23042;-76
2022/09/18 02:36:31;;;;;;;11.30;3.70;;;;;;;9.65;66.37;99241.31;110273;1254;21991;-77
2022/09/18 02:39:55;;;;;;;7.70;3.40;;;;;;;9.61;66.48;99237.88;110344;1255;23488;-75
2022/09/18 02:42:54;;;;;;;6.60;3.00;;;;;;;9.57;66.59;99236.52;109914;1261;23562;-76
2022/09/18 02:45:42;;;;;;;8.90;3.00;;;;;;;9.55;66.68;99239.56;110143;1260;21968;-76
2022/09/18 02:48:49;;;;;;;7.70;2.90;;;;;;;9.54;66.62;99241.02;110148;1260;22422;-76
2022/09/18 02:51:40;;;;;;;5.70;2.60;;;;;;;9.49;66.65;99238.49;109095;1265;22439;-77
2022/09/18 02:54:48;;;;;;;5.80;2.80;;;;;;;9.47;66.70;99234.27;109125;1264;22843;-77
2022/09/18 02:57:32;;;;;;;6.80;3.70;;;;;;;9.44;66.68;99231.81;108719;1273;22154;-77
2022/09/18 03:00:06;;;;;;;10.60;3.10;;;;;;;9.44;66.68;99234.26;108687;1273;22844;-76
2022/09/18 03:02:37;;;;;;;8.20;2.90;;;;;;;9.43;66.65;99233.24;108410;1273;22204;-76
2022/09/18 03:05:08;;;;;;;6.30;2.70;;;;;;;9.44;66.74;99234.09;108665;1273;23112;-77
2022/09/18 03:07:45;;;;;;;7.50;2.80;;;;;;;9.42;66.80;99233.65;108713;1273;21992;-77
2022/09/18 03:10:14;;;;;;;8.00;2.90;;;;;;;9.41;66.86;99233.68;108770;1267;23734;-75
2022/09/18 03:12:43;;;;;;;5.40;2.70;;;;;;;9.43;66.87;99232.74;109077;1267;23713;-76
2022/09/18 03:15:12;;;;;;;6.60;2.00;;;;;;;9.44;66.80;99234.23;108716;1272;22054;-76
2022/09/18 03:17:41;;;;;;;9.10;2.80;;;;;;;9.45;66.73;99232.46;108734;1273;21995;-76
2022/09/18 03:20:10;;;;;;;5.90;2.10;;;;;;;9.44;66.72;99232.48;108583;1270;23666;-77
2022/09/18 03:22:39;;;;;;;7.00;2.70;;;;;;;9.43;66.76;99228.04;108744;1269;21993;-77
2022/09/18 03:25:13;;;;;;;10.60;2.60;;;;;;;9.41;66.64;99227.27;108821;1270;23723;-77
2022/09/18 03:27:42;;;;;;;9.10;2.60;;;;;;;9.40;66.86;99222.61;108848;1270;22084;-77
2022/09/18 03:30:16;;;;;;;5.70;2.10;;;;;;;9.40;66.98;99222.30;108838;1270;22064;-76
2022/09/18 03:32:45;;;;;;;5.00;2.60;;;;;;;9.40;66.98;99221.40;108986;1263;23869;-76
2022/09/18 03:35:14;;;;;;;5.70;1.90;;;;;;;9.42;67.06;99220.44;110133;1257;22695;-77
2022/09/18 03:37:43;;;;;;;7.90;2.60;;;;;;;9.42;67.11;99217.48;110421;1254;23579;-77
2022/09/18 03:40:16;;;;;;;5.70;1.80;;;;;;;9.43;67.06;99219.17;110475;1256;21975;-76
2022/09/18 03:42:45;;;;;;;7.00;2.50;;;;;;;9.47;67.27;99217.25;110092;1254;23807;-77
2022/09/18 03:45:14;;;;;;;6.40;2.20;;;;;;;9.47;67.34;99215.17;110422;1256;23575;-75
2022/09/18 03:47:45;;;;;;;5.80;2.60;;;;;;;9.48;67.36;99217.20;110430;1254;21962;-75
2022/09/18 03:50:15;;;;;;;4.70;1.80;;;;;;;9.48;67.32;99214.77;110332;1256;23684;-76
2022/09/18 03:52:44;;;;;;;4.80;2.10;;;;;;;9.47;67.41;99217.06;110435;1254;23814;-74
2022/09/18 03:55:40;;;;;;;5.20;2.40;;;;;;;9.45;67.51;99216.29;110336;1254;23029;-76
2022/09/18 03:58:44;;;;;;;9.10;2.50;;;;;;;9.43;67.61;99216.58;109692;1260;21984;-76
2022/09/18 04:01:25;;;;;;;4.90;2.40;;;;;;;9.45;67.96;99214.90;109814;1261;23750;-75
2022/09/18 04:04:27;;;;;;;7.30;2.50;;;;;;;9.47;68.11;99216.19;109801;1260;21977;-75
2022/09/18 04:07:34;;;;;;;7.90;2.50;;;;;;;9.49;68.16;99218.51;109263;1265;21998;-76
2022/09/18 04:10:22;;;;;;;4.10;2.00;;;;;;;9.52;68.19;99215.04;109196;1265;22850;-76
2022/09/18 04:12:51;;;;;;;5.20;2.70;;;;;;;9.57;68.23;99214.47;109164;1264;22020;-76
2022/09/18 04:15:27;;;;;;;8.50;3.40;;;;;;;9.60;68.29;99217.09;108975;1260;23639;-75
2022/09/18 04:17:57;;;;;;;6.20;3.80;;;;;;;9.60;68.32;99219.17;109798;1261;23060;-76
2022/09/18 04:20:25;;;;;;;6.70;3.10;;;;;;;9.62;68.32;99225.30;109782;1262;21968;-75
2022/09/18 04:22:54;;;;;;;8.10;4.10;;;;;;;9.64;68.39;99221.89;109867;1262;21996;-77
2022/09/18 04:25:23;;;;;;;5.40;3.60;;;;;;;9.69;68.55;99221.16;109673;1263;23152;-75
2022/09/18 04:27:52;;;;;;;5.00;2.80;;;;;;;9.72;68.56;99219.42;109565;1261;23696;-75
2022/09/18 04:30:24;;;;;;;4.10;2.80;;;;;;;9.74;68.68;99218.81;109185;1264;21981;-76
2022/09/18 04:32:54;;;;;;;16.00;2.80;;;;;;;9.75;68.66;99218.92;109284;1265;21971;-75
2022/09/18 04:35:23;;;;;;;5.90;2.90;;;;;;;9.75;68.60;99224.81;109322;1265;22039;-75
2022/09/18 04:37:51;;;;;;;6.90;2.60;;;;;;;9.77;68.67;99224.72;109204;1260;22433;-75
2022/09/18 04:40:20;;;;;;;4.10;2.30;;;;;;;9.80;68.87;99222.13;109861;1259;22913;-76
2022/09/18 04:42:50;;;;;;;7.30;2.40;;;;;;;9.84;68.91;99225.20;110164;1259;21969;-77
2022/09/18 04:45:19;;;;;;;8.00;3.30;;;;;;;9.88;69.00;99224.50;109839;1259;23077;-76
2022/09/18 04:47:48;;;;;;;7.50;4.60;;;;;;;9.90;68.90;99226.49;109949;1256;21975;-76
2022/09/18 04:50:19;;;;;;;4.60;2.70;;;;;;;9.91;68.87;99226.91;110417;1254;22736;-76
2022/09/18 04:53:12;;;;;;;4.50;2.50;;;;;;;9.90;68.91;99229.20;110372;1254;21970;-76
2022/09/18 04:55:45;;;;;;;7.30;3.30;;;;;;;9.92;68.97;99232.58;110459;1254;22008;-76
2022/09/18 04:58:17;;;;;;;7.20;3.00;;;;;;;9.95;68.88;99234.03;110197;1254;22013;-75
2022/09/18 05:00:50;;;;;;;5.50;2.60;;;;;;;9.94;68.90;99234.92;110306;1256;23800;-75
2022/09/18 05:03:21;;;;;;;8.50;3.00;;;;;;;9.98;68.97;99237.52;109693;1261;22768;-75
2022/09/18 05:05:53;;;;;;;6.00;2.80;;;;;;;10.01;68.97;99235.45;109774;1261;22956;-76
2022/09/18 05:08:23;;;;;;;6.60;3.30;;;;;;;10.03;68.93;99233.92;109643;1261;23584;-75
2022/09/18 05:10:52;;;;;;;5.60;2.50;;;;;;;10.04;68.92;99229.55;109273;1261;23046;-75
2022/09/18 05:13:21;;;;;;;6.60;2.80;;;;;;;10.06;68.86;99229.44;109876;1261;22013;-76
2022/09/18 05:15:59;;;;;;;3.50;2.50;;;;;;;10.06;68.84;99228.55;109707;1261;23056;-75
2022/09/18 05:18:30;;;;;;;4.80;2.40;;;;;;;10.07;68.79;99224.39;109147;1266;22786;-77
2022/09/18 05:21:04;;;;;;;5.30;2.60;;;;;;;10.06;68.83;99225.63;109223;1262;22127;-75
2022/09/18 05:23:34;;;;;;;9.20;2.90;;;;;;;10.06;68.92;99226.84;109566;1261;22080;-76
2022/09/18 05:26:03;;;;;;;6.40;2.90;;;;;;;10.07;69.00;99226.80;109905;1261;23606;-75
2022/09/18 05:28:32;;;;;;;5.90;3.00;;;;;;;10.07;68.91;99227.86;109682;1261;22049;-77
2022/09/18 05:31:02;;;;;;;3.60;2.80;;;;;;;10.08;69.05;99232.66;109109;1267;21998;-76
2022/09/18 05:33:40;;;;;;;4.60;3.00;;;;;;;10.11;69.21;99232.67;108905;1269;23665;-78
2022/09/18 05:36:14;;;;;;;7.60;3.30;;;;;;;10.18;69.44;99230.70;109031;1261;22069;-76
2022/09/18 05:38:52;;;;;;;8.90;3.30;;;;;;;10.24;69.34;99231.10;109568;1263;22718;-76
2022/09/18 05:41:25;;;;;;;5.30;2.80;;;;;;;10.25;69.09;99226.52;109192;1261;23036;-77
2022/09/18 05:43:57;;;;;;;7.20;2.80;;;;;;;10.26;69.06;99232.19;109602;1262;22480;-77
2022/09/18 05:46:31;;;;;;;7.00;2.30;;;;;;;10.28;69.13;99231.77;109539;1260;24231;-77
2022/09/18 05:49:05;;;;;;;4.20;2.70;;;;;;;10.29;69.16;99232.39;109598;1255;23579;-77
2022/09/18 05:51:46;;;;;;;3.70;2.70;;;;;;;10.32;69.27;99232.60;109695;1261;21972;-77
2022/09/18 05:54:43;;;;;;;5.00;3.20;;;;;;;10.34;69.24;99231.61;109269;1262;22197;-76
2022/09/18 05:57:20;;;;;;;4.50;3.00;;;;;;;10.34;69.43;99231.63;108449;1262;1639109;-76
2022/09/18 05:59:50;;;;;;;6.00;3.00;;;;;;;10.34;69.42;99231.96;109875;1261;22591;-77
2022/09/18 06:02:20;;;;;;;4.30;3.10;;;;;;;10.34;69.37;99229.38;109561;1260;23118;-77
2022/09/18 06:05:17;;;;;;;4.50;2.20;;;;;;;10.36;69.49;99225.07;109618;1260;23697;-77
2022/09/18 06:08:08;;;;;;;5.90;2.50;;;;;;;10.39;69.52;99222.50;109644;1260;23745;-77
2022/09/18 06:10:52;;;;;;;5.10;2.80;;;;;;;10.44;69.67;99222.41;110175;1256;23057;-77
2022/09/18 06:13:47;;;;;;;4.60;2.50;;;;;;;10.48;69.66;99224.78;110058;1256;22893;-77
2022/09/18 06:16:21;;;;;;;6.00;2.60;;;;;;;10.51;69.55;99224.10;110234;1256;22041;-78
2022/09/18 06:19:00;;;;;;;3.30;2.60;;;;;;;10.58;69.59;99226.14;110119;1256;21966;-77
2022/09/18 06:21:36;;;;;;;6.10;2.80;;;;;;;10.70;69.60;99229.10;110038;1256;22833;-77
2022/09/18 06:24:08;;;;;;;5.50;3.10;;;;;;;10.79;69.57;99231.39;110084;1255;22066;-77
2022/09/18 06:27:10;;;;;;;3.80;3.10;;;;;;;10.90;69.61;99232.36;109993;1254;21962;-78
2022/09/18 06:29:51;;;;;;;6.10;3.20;;;;;;;10.99;69.30;99234.27;109868;1256;23583;-77
2022/09/18 06:32:33;;;;;;;5.20;2.90;;;;;;;11.04;69.07;99233.45;109954;1256;22745;-78
2022/09/18 06:35:04;;;;;;;6.90;2.50;;;;;;;11.14;68.97;99237.95;109985;1256;22069;-77
2022/09/18 06:37:43;;;;;;;4.70;2.10;;;;;;;11.23;68.49;99240.23;109975;1256;21965;-77
2022/09/18 06:40:35;;;;;;;4.30;2.60;;;;;;;11.25;68.05;99240.61;110090;1256;21977;-77
2022/09/18 06:43:23;;;;;;;7.00;3.00;;;;;;;11.24;67.79;99243.08;110102;1256;23076;-78
2022/09/18 06:46:20;;;;;;;5.30;3.40;;;;;;;11.22;67.56;99244.95;109856;1256;22033;-77
2022/09/18 06:48:56;;;;;;;4.20;3.00;;;;;;;11.25;67.45;99244.10;110199;1256;22408;-77
2022/09/18 06:51:35;;;;;;;5.10;2.70;;;;;;;11.28;67.36;99241.77;110241;1256;22049;-77
2022/09/18 06:54:12;;;;;;;4.00;3.20;;;;;;;11.37;67.42;99247.21;110257;1256;22211;-79
2022/09/18 06:56:48;;;;;;;4.10;3.50;;;;;;;11.52;67.72;99247.19;109923;1256;23592;-77
2022/09/18 06:59:22;;;;;;;5.50;3.20;;;;;;;11.69;67.50;99248.80;110227;1256;21984;-77
2022/09/18 07:02:02;;;;;;;5.20;4.00;;;;;;;11.82;66.98;99250.13;110002;1256;21963;-78
2022/09/18 07:04:53;;;;;;;4.70;4.00;;;;;;;11.86;66.12;99247.61;109969;1256;22513;-77
2022/09/18 07:07:22;;;;;;;4.50;3.70;;;;;;;11.89;65.59;99249.23;109332;1264;21984;-78
2022/09/18 07:09:51;;;;;;;5.80;2.90;;;;;;;11.90;65.23;99245.33;109552;1264;23592;-79
2022/09/18 07:12:30;;;;;;;4.90;3.00;;;;;;;11.92;65.12;99242.95;109458;1264;22002;-77
2022/09/18 07:15:02;;;;;;;2.80;2.50;;;;;;;12.13;66.52;99238.83;109548;1264;23021;-79
2022/09/18 07:17:40;;;;;;;3.40;2.50;;;;;;;12.67;67.24;99235.96;109606;1264;21978;-79
2022/09/18 07:20:19;;;;;;;3.70;2.90;;;;;;;13.19;66.05;99232.44;109264;1263;25014;-79
2022/09/18 07:23:28;;;;;;;4.90;3.30;;;;;;;13.57;64.55;99236.21;109576;1264;23567;-84
2022/09/18 07:26:18;;;;;;;3.70;2.50;;;;;;;14.13;63.82;99237.42;110191;1256;24301;-80
2022/09/18 07:29:09;;;;;;;;;;;;;;;14.71;62.64;99234.33;110112;1256;23047;-85
2022/09/18 07:31:53;;;;;;;4.30;2.20;;;;;;;15.18;61.96;99235.45;110363;1258;22424;-85
2022/09/18 07:34:36;;;;;;;6.00;4.10;;;;;;;15.68;60.07;99240.88;110371;1256;21961;-87
2022/09/18 07:37:46;;;;;;;7.10;4.40;;;;;;;16.05;57.86;99238.91;110074;1260;22072;-84
2022/09/18 07:41:03;;;;;;;3.20;2.70;;;;;;;16.25;55.61;99241.02;110202;1258;21965;-87
2022/09/18 07:43:52;;;;;;;5.50;2.70;;;;;;;16.28;54.08;99243.60;110275;1258;23592;-84
2022/09/18 07:46:25;;;;;;;2.90;2.30;;;;;;;16.15;53.05;99242.86;109955;1258;21991;-84
2022/09/18 07:49:11;;;;;;;3.00;2.00;;;;;;;15.90;52.66;99256.04;110122;1259;21977;-83
2022/09/18 07:52:13;;;;;;;3.80;2.40;;;;;;;15.50;52.35;99256.94;110108;1258;23720;-83
2022/09/18 07:55:46;;;;;;;4.10;2.60;;;;;;;14.95;52.95;99259.09;109715;1264;21980;-83
2022/09/18 07:58:29;;;;;;;7.00;4.30;;;;;;;14.52;53.55;99264.82;109568;1264;22026;-85
2022/09/18 08:01:26;;;;;;;6.40;4.10;;;;;;;14.15;54.16;99264.25;109567;1262;22099;-83
2022/09/18 08:04:15;;;;;;;4.90;4.00;;;;;;;13.87;54.79;99268.27;109645;1261;21977;-83
2022/09/18 08:07:40;;;;;;;5.50;3.80;;;;;;;13.59;55.38;99270.02;109611;1262;22094;-84
2022/09/18 08:11:16;;;;;;;5.90;4.00;;;;;;;13.31;56.32;99273.03;109812;1261;23928;-86
2022/09/18 08:14:10;;;;;;;5.80;3.80;;;;;;;13.18;57.12;99274.59;109645;1262;21969;-84
2022/09/18 08:17:14;;;;;;;5.90;3.90;;;;;;;13.15;57.79;99276.05;109898;1261;23136;-86
2022/09/18 08:20:38;;;;;;;5.70;4.10;;;;;;;13.08;57.89;99275.76;109798;1262;21965;-83
2022/09/18 08:23:35;;;;;;;13.30;9.90;;;;;;;13.01;58.37;99276.20;109880;1262;21986;-85
2022/09/18 08:26:23;;;;;;;6.40;4.20;;;;;;;13.03;58.65;99278.57;109567;1262;21996;-85
2022/09/18 08:29:07;;;;;;;6.50;3.80;;;;;;;13.00;58.58;99281.37;109721;1264;22768;-88
2022/09/18 08:31:55;;;;;;;4.50;3.90;;;;;;;12.97;58.71;99282.42;109506;1259;21971;-86
2022/09/18 08:34:50;;;;;;;6.60;4.20;;;;;;;12.97;58.95;99275.45;110188;1259;22097;-82
2022/09/18 08:37:56;;;;;;;5.70;4.90;;;;;;;13.05;59.20;99281.41;109912;1259;23764;-81
2022/09/18 08:41:48;;;;;;;5.50;4.70;;;;;;;13.11;59.34;99282.95;110185;1261;21990;-88
2022/09/18 08:44:48;;;;;;;6.20;5.10;;;;;;;13.13;59.02;99281.73;110010;1260;23033;-82
2022/09/18 08:47:49;;;;;;;10.10;6.70;;;;;;;13.14;58.75;99280.98;109904;1262;22024;-83
2022/09/18 08:50:41;;;;;;;9.90;7.80;;;;;;;13.16;58.83;99281.56;109820;1262;21975;-83
2022/09/18 08:53:41;;;;;;;5.00;4.50;;;;;;;13.28;59.13;99277.25;109550;1262;21980;-83
2022/09/18 08:57:08;;;;;;;;;;;;;;;13.52;58.95;99280.10;109695;1261;22027;-86
2022/09/18 09:00:36;;;;;;;5.90;4.80;;;;;;;13.59;58.75;99279.79;109708;1262;21990;-82
2022/09/18 09:04:11;;;;;;;4.50;3.50;;;;;;;13.68;58.24;99279.54;109777;1263;22373;-84
2022/09/18 09:07:13;;;;;;;6.50;3.80;;;;;;;13.66;57.86;99279.63;110273;1261;23687;-86
2022/09/18 09:10:09;;;;;;;4.80;3.80;;;;;;;13.67;57.98;99282.56;109775;1264;21977;-84
2022/09/18 09:13:53;;;;;;;6.20;3.80;;;;;;;13.71;58.21;99281.75;109928;1261;22917;-84
2022/09/18 09:17:32;;;;;;;5.10;4.00;;;;;;;13.82;58.22;99279.98;110009;1260;22092;-87
2022/09/18 09:20:30;;;;;;;6.80;4.30;;;;;;;13.85;57.85;99283.96;110338;1259;21968;-81
2022/09/18 09:23:30;;;;;;;4.80;4.30;;;;;;;13.86;57.79;99288.30;110153;1258;22477;-81
2022/09/18 09:26:20;;;;;;;5.70;3.50;;;;;;;13.84;57.78;99287.34;110604;1256;21975;-81
2022/09/18 09:29:23;;;;;;;5.60;4.40;;;;;;;13.80;57.83;99288.70;109871;1262;23683;-81
2022/09/18 09:32:39;;;;;;;6.30;4.10;;;;;;;13.76;58.16;99288.27;109131;1270;23046;-79
2022/09/18 09:35:52;;;;;;;4.50;4.00;;;;;;;13.74;58.36;99289.63;109155;1270;23216;-82
2022/09/18 09:39:03;;;;;;;4.40;3.80;;;;;;;13.76;58.71;99285.27;109090;1270;23781;-83
2022/09/18 09:42:04;;;;;;;5.60;3.70;;;;;;;13.74;58.82;99280.02;108999;1273;22006;-82
2022/09/18 09:45:00;;;;;;;6.50;3.20;;;;;;;13.84;59.02;99285.79;108836;1273;23620;-81
2022/09/18 09:47:57;;;;;;;3.90;3.50;;;;;;;13.93;59.02;99289.40;108585;1279;22284;-82
2022/09/18 09:51:07;;;;;;;4.80;3.70;;;;;;;13.98;58.93;99291.80;107716;1288;22032;-82
2022/09/18 09:53:35;;;;;;;3.40;3.10;;;;;;;13.95;58.66;99295.55;107649;1288;22072;-83
2022/09/18 09:56:29;;;;;;;6.40;4.80;;;;;;;13.94;58.90;99295.80;107393;1292;22021;-82
2022/09/18 09:59:15;;;;;;;5.00;4.10;;;;;;;13.93;58.95;99299.53;107116;1291;22428;-81
2022/09/18 10:02:46;;;;;;;4.00;3.60;;;;;;;13.90;58.85;99300.79;107534;1291;22039;-88
2022/09/18 10:05:28;;;;;;;4.90;4.10;;;;;;;13.81;58.85;99304.69;107028;1285;22014;-85
2022/09/18 10:08:16;;;;;;;4.60;3.10;;;;;;;13.80;58.97;99307.05;108118;1282;22148;-86
2022/09/18 10:11:10;;;;;;;5.20;3.60;;;;;;;13.80;59.02;99308.64;108128;1282;23018;-85
2022/09/18 10:14:31;;;;;;;6.20;5.70;;;;;;;13.81;59.19;99306.81;108498;1282;21995;-89
2022/09/18 10:17:05;;;;;;;3.30;2.80;;;;;;;13.83;59.35;99312.08;108214;1276;24050;-85
2022/09/18 10:19:44;;;;;;;4.60;3.80;;;;;;;13.83;59.15;99311.74;108561;1276;22015;-85
2022/09/18 10:22:22;;;;;;;8.90;4.00;;;;;;;13.82;59.34;99312.63;108606;1276;22158;-85
2022/09/18 10:25:01;;;;;;;5.30;4.20;;;;;;;13.89;59.77;99314.31;108727;1276;22078;-86
2022/09/18 10:27:32;;;;;;;4.80;3.80;;;;;;;14.03;59.86;99315.98;108582;1273;22497;-86
2022/09/18 10:30:12;;;;;;;9.40;5.10;;;;;;;14.21;59.96;99320.00;108495;1276;22971;-84
2022/09/18 10:32:49;;;;;;;6.00;4.00;;;;;;;14.33;59.51;99321.10;108881;1273;22000;-84
2022/09/18 10:35:30;;;;;;;6.00;3.80;;;;;;;14.40;59.40;99320.98;108608;1279;22760;-85
2022/09/18 10:37:59;;;;;;;6.10;4.00;;;;;;;14.63;59.85;99324.80;108609;1279;23116;-84
2022/09/18 10:40:40;;;;;;;5.90;4.70;;;;;;;15.00;59.67;99326.73;108603;1278;22281;-85
2022/09/18 10:43:19;;;;;;;5.40;4.10;;;;;;;15.17;58.34;99323.34;109008;1271;23785;-86
2022/09/18 10:45:56;;;;;;;5.90;3.40;;;;;;;15.16;57.30;99321.11;109066;1273;24315;-86
2022/09/18 10:48:30;;;;;;;5.40;3.30;;;;;;;15.10;56.96;99325.27;109188;1273;23601;-83
2022/09/18 10:51:03;;;;;;;7.50;3.50;;;;;;;15.05;56.93;99328.61;108734;1273;22070;-81
2022/09/18 10:54:22;;;;;;;5.30;3.10;;;;;;;14.95;56.81;99328.30;109551;1258;21969;-79
2022/09/18 10:57:26;;;;;;;4.60;2.70;;;;;;;14.86;56.85;99326.52;110665;1254;23039;-83
2022/09/18 10:59:57;;;;;;;4.30;2.60;;;;;;;14.79;57.15;99331.16;110639;1254;21969;-81
2022/09/18 11:02:37;;;;;;;3.10;2.20;;;;;;;14.77;57.38;99332.70;110491;1256;22356;-83
2022/09/18 11:05:33;;;;;;;3.50;2.10;;;;;;;14.72;57.48;99333.75;109936;1261;22912;-83
2022/09/18 11:08:14;;;;;;;23.80;21.80;;;;;;;14.65;57.46;99332.15;109790;1261;21981;-81
2022/09/18 11:10:49;;;;;;;4.30;2.10;;;;;;;14.56;57.34;99333.83;110059;1260;23608;-86
2022/09/18 11:13:24;;;;;;;4.00;2.30;;;;;;;14.52;57.63;99330.31;109908;1262;21977;-80
2022/09/18 11:16:01;;;;;;;3.40;1.80;;;;;;;14.52;57.81;99330.27;109439;1261;23065;-81
2022/09/18 11:18:37;;;;;;;4.30;1.70;;;;;;;14.56;57.69;99333.51;109500;1262;23605;-81
2022/09/18 11:21:10;;;;;;;2.50;1.10;;;;;;;14.64;58.02;99328.92;109663;1260;22994;-80
2022/09/18 11:23:40;;;;;;;3.70;1.30;;;;;;;14.76;57.71;99321.73;110083;1255;22828;-81
2022/09/18 11:26:26;;;;;;;2.60;1.10;;;;;;;14.91;57.56;99326.45;110075;1260;23720;-83
2022/09/18 11:29:23;;;;;;;4.20;1.30;;;;;;;15.00;56.83;99329.00;109939;1260;23831;-83
2022/09/18 11:32:02;;;;;;;3.00;1.70;;;;;;;14.99;56.63;99323.06;109849;1261;22026;-83
2022/09/18 11:34:43;;;;;;;2.40;1.60;;;;;;;15.01;56.35;99324.02;109959;1260;21984;-82
2022/09/18 11:37:27;;;;;;;4.80;1.60;;;;;;;14.97;56.09;99324.79;110011;1261;21976;-81
2022/09/18 11:40:43;;;;;;;3.50;1.50;;;;;;;14.96;56.30;99322.59;109654;1261;22088;-82
2022/09/18 11:43:22;;;;;;;17.40;16.00;;;;;;;14.99;56.50;99326.09;110164;1261;23712;-82
2022/09/18 11:46:27;;;;;;;2.90;1.00;;;;;;;15.06;56.36;99320.14;109464;1264;23094;-86
2022/09/18 11:49:22;;;;;;;3.70;1.60;;;;;;;15.03;55.88;99323.50;109136;1270;23108;-85
2022/09/18 11:51:59;;;;;;;2.80;1.30;;;;;;;14.86;55.29;99318.39;109216;1267;21990;-87
2022/09/18 11:54:57;;;;;;;3.10;1.60;;;;;;;14.72;55.33;99320.84;109440;1267;22000;-84
2022/09/18 11:58:06;;;;;;;8.40;3.60;;;;;;;14.63;55.64;99329.52;109447;1267;23850;-86
2022/09/18 12:00:47;;;;;;;12.00;4.20;;;;;;;14.50;56.06;99342.09;109433;1265;21989;-85
2022/09/18 12:03:26;;;;;;;14.40;4.40;;;;;;;14.30;56.73;99348.24;109491;1267;21988;-84
2022/09/18 12:06:09;;;;;;;8.60;3.50;;;;;;;14.03;57.76;99345.73;109647;1264;23835;-83
2022/09/18 12:09:07;;;;;;;4.80;1.90;;;;;;;13.81;58.85;99351.94;109498;1264;21981;-84
2022/09/18 12:11:54;;;;;;;3.30;1.80;;;;;;;13.61;60.06;99357.97;109729;1263;22055;-81
2022/09/18 12:14:52;;;;;;;4.20;1.40;;;;;;;13.41;60.94;99360.45;109893;1264;21984;-82
2022/09/18 12:17:56;;;;;;;2.90;1.70;;;;;;;13.18;61.57;99365.09;109913;1264;22932;-79
2022/09/18 12:20:32;;;;;;;3.90;2.20;;;;;;;13.00;62.53;99368.50;109847;1263;21978;-80
2022/09/18 12:23:04;;;;;;;3.50;1.90;;;;;;;12.96;63.15;99369.49;109534;1263;23675;-80
2022/09/18 12:25:56;;;;;;;3.80;2.00;;;;;;;12.92;63.79;99367.11;109532;1258;21962;-80
2022/09/18 12:29:00;;;;;;;3.80;1.90;;;;;;;12.87;64.52;99367.76;110562;1257;23281;-80
2022/09/18 12:32:14;;;;;;;7.20;3.10;;;;;;;12.86;64.90;99368.49;110894;1256;23116;-82
2022/09/18 12:35:17;;;;;;;3.90;2.20;;;;;;;12.87;65.37;99367.93;110307;1260;23009;-82
2022/09/18 12:38:23;;;;;;;5.20;3.40;;;;;;;12.92;65.74;99364.30;109411;1267;23596;-82
2022/09/18 12:41:31;;;;;;;7.30;3.20;;;;;;;12.90;65.72;99366.52;109547;1266;22033;-81
2022/09/18 12:44:44;;;;;;;10.70;2.90;;;;;;;12.82;65.88;99366.63;109604;1265;21979;-82
2022/09/18 12:47:26;;;;;;;9.20;2.90;;;;;;;12.81;66.14;99367.23;109489;1266;21992;-80
2022/09/18 12:50:20;;;;;;;;;;;;;;;12.84;66.23;99367.73;109845;1264;21980;-80